sensor_id;sensor_type;location;lat;lon;timestamp;P1;durP1;ratioP1;P2;durP2;ratioP2
43803;SDS011;29430;52.924;-2.388;2023-02-28T00:04:50;6.30;;;4.38;;
43803;SDS011;29430;52.924;-2.388;2023-02-28T00:09:44;8.73;;;5.07;;
43803;SDS011;29430;52.924;-2.388;2023-02-28T00:14:36;8.07;;;5.32;;
43803;SDS011;29430;52.924;-2.388;2023-02-28T00:19:28;10.55;;;4.47;;
43803;SDS011;29430;52.924;-2.388;2023-02-28T00:24:19;8.13;;;5.50;;
43803;SDS011;29430;52.924;-2.388;2023-02-28T00:29:11;9.30;;;5.80;;
43803;SDS011;29430;52.924;-2.388;2023-02-28T00:34:03;9.13;;;5.80;;
43803;SDS011;29430;52.924;-2.388;2023-02-28T00:38:57;9.45;;;5.82;;
43803;SDS011;29430;52.924;-2.388;2023-02-28T00:43:49;8.13;;;5.38;;
43803;SDS011;29430;52.924;-2.388;2023-02-28T00:48:41;7.90;;;5.28;;
43803;SDS011;29430;52.924;-2.388;2023-02-28T00:53:33;10.45;;;7.25;;
43803;SDS011;29430;52.924;-2.388;2023-02-28T00:58:27;10.70;;;5.78;;
43803;SDS011;29430;52.924;-2.388;2023-02-28T01:08:11;10.32;;;7.03;;
43803;SDS011;29430;52.924;-2.388;2023-02-28T01:13:03;10.90;;;6.00;;
43803;SDS011;29430;52.924;-2.388;2023-02-28T01:17:55;8.02;;;5.35;;
43803;SDS011;29430;52.924;-2.388;2023-02-28T01:22:49;9.35;;;5.95;;
43803;SDS011;29430;52.924;-2.388;2023-02-28T01:27:41;9.40;;;5.65;;
43803;SDS011;29430;52.924;-2.388;2023-02-28T01:32:32;9.57;;;5.82;;
43803;SDS011;29430;52.924;-2.388;2023-02-28T01:37:24;10.98;;;7.25;;
43803;SDS011;29430;52.924;-2.388;2023-02-28T01:42:16;10.95;;;7.72;;
43803;SDS011;29430;52.924;-2.388;2023-02-28T01:47:07;10.75;;;7.78;;
43803;SDS011;29430;52.924;-2.388;2023-02-28T01:51:59;28.00;;;9.20;;
43803;SDS011;29430;52.924;-2.388;2023-02-28T01:56:53;13.40;;;9.15;;
43803;SDS011;29430;52.924;-2.388;2023-02-28T02:01:49;13.18;;;7.45;;
43803;SDS011;29430;52.924;-2.388;2023-02-28T02:06:42;15.52;;;8.15;;
43803;SDS011;29430;52.924;-2.388;2023-02-28T02:11:37;10.02;;;6.63;;
43803;SDS011;29430;52.924;-2.388;2023-02-28T02:17:18;10.85;;;6.68;;
43803;SDS011;29430;52.924;-2.388;2023-02-28T02:27:26;9.32;;;6.07;;
43803;SDS011;29430;52.924;-2.388;2023-02-28T02:42:41;9.90;;;6.28;;
43803;SDS011;29430;52.924;-2.388;2023-02-28T02:47:41;11.02;;;5.68;;
43803;SDS011;29430;52.924;-2.388;2023-02-28T02:52:44;7.57;;;4.65;;
43803;SDS011;29430;52.924;-2.388;2023-02-28T02:57:43;8.50;;;4.82;;
43803;SDS011;29430;52.924;-2.388;2023-02-28T03:02:39;8.82;;;5.05;;
43803;SDS011;29430;52.924;-2.388;2023-02-28T03:07:32;7.90;;;4.32;;
43803;SDS011;29430;52.924;-2.388;2023-02-28T03:12:32;5.85;;;3.60;;
43803;SDS011;29430;52.924;-2.388;2023-02-28T03:32:38;5.78;;;3.13;;
43803;SDS011;29430;52.924;-2.388;2023-02-28T03:37:37;7.15;;;4.20;;
43803;SDS011;29430;52.924;-2.388;2023-02-28T03:42:34;6.57;;;3.25;;
43803;SDS011;29430;52.924;-2.388;2023-02-28T03:47:37;6.90;;;3.25;;
43803;SDS011;29430;52.924;-2.388;2023-02-28T03:52:35;5.85;;;2.72;;
43803;SDS011;29430;52.924;-2.388;2023-02-28T04:02:24;6.00;;;3.10;;
43803;SDS011;29430;52.924;-2.388;2023-02-28T04:07:15;5.80;;;2.42;;
43803;SDS011;29430;52.924;-2.388;2023-02-28T04:12:08;7.50;;;3.42;;
43803;SDS011;29430;52.924;-2.388;2023-02-28T04:17:00;4.90;;;2.30;;
43803;SDS011;29430;52.924;-2.388;2023-02-28T04:21:52;5.22;;;2.67;;
43803;SDS011;29430;52.924;-2.388;2023-02-28T04:26:46;5.43;;;2.17;;
43803;SDS011;29430;52.924;-2.388;2023-02-28T04:31:39;5.45;;;1.88;;
43803;SDS011;29430;52.924;-2.388;2023-02-28T04:36:32;3.75;;;1.60;;
43803;SDS011;29430;52.924;-2.388;2023-02-28T04:41:23;4.95;;;2.55;;
43803;SDS011;29430;52.924;-2.388;2023-02-28T04:46:15;7.00;;;2.95;;
43803;SDS011;29430;52.924;-2.388;2023-02-28T04:51:08;5.13;;;2.60;;
43803;SDS011;29430;52.924;-2.388;2023-02-28T04:56:01;7.72;;;3.72;;
43803;SDS011;29430;52.924;-2.388;2023-02-28T05:00:53;8.93;;;4.45;;
43803;SDS011;29430;52.924;-2.388;2023-02-28T05:05:52;9.93;;;4.95;;
43803;SDS011;29430;52.924;-2.388;2023-02-28T05:10:43;23.08;;;6.80;;
43803;SDS011;29430;52.924;-2.388;2023-02-28T05:15:35;9.85;;;5.10;;
43803;SDS011;29430;52.924;-2.388;2023-02-28T05:20:27;9.15;;;5.55;;
43803;SDS011;29430;52.924;-2.388;2023-02-28T05:25:20;7.35;;;4.63;;
43803;SDS011;29430;52.924;-2.388;2023-02-28T05:30:15;12.40;;;5.22;;
43803;SDS011;29430;52.924;-2.388;2023-02-28T05:35:07;18.40;;;6.38;;
43803;SDS011;29430;52.924;-2.388;2023-02-28T05:40:00;9.95;;;5.65;;
43803;SDS011;29430;52.924;-2.388;2023-02-28T05:44:51;9.60;;;5.15;;
43803;SDS011;29430;52.924;-2.388;2023-02-28T05:49:43;10.18;;;5.13;;
43803;SDS011;29430;52.924;-2.388;2023-02-28T05:54:35;7.95;;;4.35;;
43803;SDS011;29430;52.924;-2.388;2023-02-28T05:59:26;8.52;;;4.93;;
43803;SDS011;29430;52.924;-2.388;2023-02-28T06:04:19;10.40;;;4.43;;
43803;SDS011;29430;52.924;-2.388;2023-02-28T06:09:22;8.52;;;4.82;;
43803;SDS011;29430;52.924;-2.388;2023-02-28T06:14:16;8.75;;;4.35;;
43803;SDS011;29430;52.924;-2.388;2023-02-28T06:19:09;11.48;;;4.78;;
43803;SDS011;29430;52.924;-2.388;2023-02-28T06:24:01;8.30;;;4.05;;
43803;SDS011;29430;52.924;-2.388;2023-02-28T06:28:54;32.45;;;5.70;;
43803;SDS011;29430;52.924;-2.388;2023-02-28T06:33:46;11.80;;;4.63;;
43803;SDS011;29430;52.924;-2.388;2023-02-28T06:38:39;14.40;;;5.57;;
43803;SDS011;29430;52.924;-2.388;2023-02-28T06:43:34;50.53;;;6.40;;
43803;SDS011;29430;52.924;-2.388;2023-02-28T06:48:28;7.28;;;3.50;;
43803;SDS011;29430;52.924;-2.388;2023-02-28T06:53:20;26.27;;;5.90;;
43803;SDS011;29430;52.924;-2.388;2023-02-28T06:58:12;154.00;;;10.48;;
43803;SDS011;29430;52.924;-2.388;2023-02-28T07:03:06;43.05;;;6.05;;
43803;SDS011;29430;52.924;-2.388;2023-02-28T07:07:58;8.55;;;4.28;;
43803;SDS011;29430;52.924;-2.388;2023-02-28T07:12:50;10.40;;;5.78;;
43803;SDS011;29430;52.924;-2.388;2023-02-28T07:17:42;12.80;;;6.80;;
43803;SDS011;29430;52.924;-2.388;2023-02-28T07:22:34;12.30;;;6.40;;
43803;SDS011;29430;52.924;-2.388;2023-02-28T07:27:26;9.95;;;6.03;;
43803;SDS011;29430;52.924;-2.388;2023-02-28T07:32:19;13.70;;;6.65;;
43803;SDS011;29430;52.924;-2.388;2023-02-28T07:37:12;14.73;;;6.57;;
43803;SDS011;29430;52.924;-2.388;2023-02-28T07:42:04;9.63;;;5.70;;
43803;SDS011;29430;52.924;-2.388;2023-02-28T07:46:58;11.75;;;5.82;;
43803;SDS011;29430;52.924;-2.388;2023-02-28T07:51:51;8.65;;;4.80;;
43803;SDS011;29430;52.924;-2.388;2023-02-28T07:56:42;12.90;;;5.75;;
43803;SDS011;29430;52.924;-2.388;2023-02-28T08:01:34;10.13;;;5.13;;
43803;SDS011;29430;52.924;-2.388;2023-02-28T08:06:26;7.95;;;4.22;;
43803;SDS011;29430;52.924;-2.388;2023-02-28T08:11:17;11.27;;;4.28;;
43803;SDS011;29430;52.924;-2.388;2023-02-28T08:16:09;7.45;;;3.45;;
43803;SDS011;29430;52.924;-2.388;2023-02-28T08:21:09;9.20;;;3.97;;
43803;SDS011;29430;52.924;-2.388;2023-02-28T08:26:01;9.82;;;3.78;;
43803;SDS011;29430;52.924;-2.388;2023-02-28T08:30:56;6.35;;;3.35;;
43803;SDS011;29430;52.924;-2.388;2023-02-28T08:35:51;6.25;;;3.10;;
43803;SDS011;29430;52.924;-2.388;2023-02-28T08:40:44;7.53;;;3.55;;
43803;SDS011;29430;52.924;-2.388;2023-02-28T08:45:35;4.18;;;1.88;;
43803;SDS011;29430;52.924;-2.388;2023-02-28T08:50:27;5.57;;;2.40;;
43803;SDS011;29430;52.924;-2.388;2023-02-28T08:55:19;6.53;;;2.05;;
43803;SDS011;29430;52.924;-2.388;2023-02-28T09:00:11;5.10;;;2.20;;
43803;SDS011;29430;52.924;-2.388;2023-02-28T09:05:05;4.55;;;1.50;;
43803;SDS011;29430;52.924;-2.388;2023-02-28T09:09:57;4.10;;;1.33;;
43803;SDS011;29430;52.924;-2.388;2023-02-28T09:14:49;5.05;;;1.35;;
43803;SDS011;29430;52.924;-2.388;2023-02-28T09:19:47;5.40;;;1.48;;
43803;SDS011;29430;52.924;-2.388;2023-02-28T09:24:39;5.03;;;1.48;;
43803;SDS011;29430;52.924;-2.388;2023-02-28T09:29:36;4.63;;;1.33;;
43803;SDS011;29430;52.924;-2.388;2023-02-28T09:34:28;4.20;;;1.10;;
43803;SDS011;29430;52.924;-2.388;2023-02-28T09:39:22;2.85;;;1.10;;
43803;SDS011;29430;52.924;-2.388;2023-02-28T09:44:20;3.63;;;1.00;;
43803;SDS011;29430;52.924;-2.388;2023-02-28T09:49:18;2.58;;;1.08;;
43803;SDS011;29430;52.924;-2.388;2023-02-28T09:54:24;2.65;;;0.88;;
43803;SDS011;29430;52.924;-2.388;2023-02-28T10:09:43;4.28;;;0.90;;
43803;SDS011;29430;52.924;-2.388;2023-02-28T10:14:38;2.80;;;0.65;;
43803;SDS011;29430;52.924;-2.388;2023-02-28T10:19:40;3.45;;;0.60;;
43803;SDS011;29430;52.924;-2.388;2023-02-28T10:24:41;2.55;;;0.60;;
43803;SDS011;29430;52.924;-2.388;2023-02-28T10:29:38;2.33;;;0.50;;
43803;SDS011;29430;52.924;-2.388;2023-02-28T10:34:33;2.15;;;0.50;;
43803;SDS011;29430;52.924;-2.388;2023-02-28T10:39:41;2.25;;;0.40;;
43803;SDS011;29430;52.924;-2.388;2023-02-28T10:49:26;1.45;;;0.20;;
43803;SDS011;29430;52.924;-2.388;2023-02-28T10:54:27;1.05;;;0.30;;
43803;SDS011;29430;52.924;-2.388;2023-02-28T10:59:29;2.45;;;0.30;;
43803;SDS011;29430;52.924;-2.388;2023-02-28T11:14:49;2.47;;;0.20;;
43803;SDS011;29430;52.924;-2.388;2023-02-28T11:19:46;3.13;;;0.20;;
43803;SDS011;29430;52.924;-2.388;2023-02-28T11:24:43;0.55;;;0.20;;
43803;SDS011;29430;52.924;-2.388;2023-02-28T11:29:39;0.82;;;0.30;;
43803;SDS011;29430;52.924;-2.388;2023-02-28T11:34:39;0.30;;;0.10;;
43803;SDS011;29430;52.924;-2.388;2023-02-28T11:39:32;0.65;;;0.10;;
43803;SDS011;29430;52.924;-2.388;2023-02-28T11:49:37;0.32;;;0.10;;
43803;SDS011;29430;52.924;-2.388;2023-02-28T12:05:11;0.88;;;0.20;;
43803;SDS011;29430;52.924;-2.388;2023-02-28T12:10:26;0.63;;;0.10;;
43803;SDS011;29430;52.924;-2.388;2023-02-28T12:20:46;0.28;;;0.10;;
43803;SDS011;29430;52.924;-2.388;2023-02-28T12:30:51;2.28;;;0.10;;
43803;SDS011;29430;52.924;-2.388;2023-02-28T12:35:58;0.65;;;0.15;;
43803;SDS011;29430;52.924;-2.388;2023-02-28T12:41:05;1.25;;;0.10;;
43803;SDS011;29430;52.924;-2.388;2023-02-28T12:51:11;2.15;;;0.10;;
43803;SDS011;29430;52.924;-2.388;2023-02-28T12:56:09;0.93;;;0.20;;
43803;SDS011;29430;52.924;-2.388;2023-02-28T13:11:33;1.92;;;0.20;;
43803;SDS011;29430;52.924;-2.388;2023-02-28T13:16:47;0.25;;;0.10;;
43803;SDS011;29430;52.924;-2.388;2023-02-28T13:21:46;0.40;;;0.10;;
43803;SDS011;29430;52.924;-2.388;2023-02-28T13:31:33;0.80;;;0.10;;
43803;SDS011;29430;52.924;-2.388;2023-02-28T13:47:19;0.40;;;0.10;;
43803;SDS011;29430;52.924;-2.388;2023-02-28T13:52:18;0.63;;;0.10;;
43803;SDS011;29430;52.924;-2.388;2023-02-28T14:07:31;0.17;;;0.00;;
43803;SDS011;29430;52.924;-2.388;2023-02-28T14:17:53;0.60;;;0.10;;
43803;SDS011;29430;52.924;-2.388;2023-02-28T14:28:21;2.22;;;0.20;;
43803;SDS011;29430;52.924;-2.388;2023-02-28T14:33:35;0.35;;;0.10;;
43803;SDS011;29430;52.924;-2.388;2023-02-28T14:38:41;0.40;;;0.10;;
43803;SDS011;29430;52.924;-2.388;2023-02-28T14:43:46;1.90;;;0.90;;
43803;SDS011;29430;52.924;-2.388;2023-02-28T14:48:40;0.68;;;0.10;;
43803;SDS011;29430;52.924;-2.388;2023-02-28T14:53:35;0.82;;;0.22;;
43803;SDS011;29430;52.924;-2.388;2023-02-28T14:58:32;2.08;;;0.20;;
43803;SDS011;29430;52.924;-2.388;2023-02-28T15:03:37;2.45;;;0.20;;
43803;SDS011;29430;52.924;-2.388;2023-02-28T15:08:30;2.53;;;0.20;;
43803;SDS011;29430;52.924;-2.388;2023-02-28T15:13:36;2.70;;;0.20;;
43803;SDS011;29430;52.924;-2.388;2023-02-28T15:18:49;0.40;;;0.10;;
43803;SDS011;29430;52.924;-2.388;2023-02-28T15:23:45;0.68;;;0.10;;
43803;SDS011;29430;52.924;-2.388;2023-02-28T15:28:41;0.93;;;0.10;;
43803;SDS011;29430;52.924;-2.388;2023-02-28T15:33:34;0.50;;;0.10;;
43803;SDS011;29430;52.924;-2.388;2023-02-28T15:38:26;1.13;;;0.20;;
43803;SDS011;29430;52.924;-2.388;2023-02-28T15:43:25;0.45;;;0.10;;
43803;SDS011;29430;52.924;-2.388;2023-02-28T15:48:22;1.30;;;0.10;;
43803;SDS011;29430;52.924;-2.388;2023-02-28T15:53:17;1.15;;;0.10;;
43803;SDS011;29430;52.924;-2.388;2023-02-28T15:58:13;0.40;;;0.10;;
43803;SDS011;29430;52.924;-2.388;2023-02-28T16:03:24;0.20;;;0.00;;
43803;SDS011;29430;52.924;-2.388;2023-02-28T16:08:17;0.43;;;0.10;;
43803;SDS011;29430;52.924;-2.388;2023-02-28T16:13:09;0.38;;;0.03;;
43803;SDS011;29430;52.924;-2.388;2023-02-28T16:18:07;0.20;;;0.00;;
43803;SDS011;29430;52.924;-2.388;2023-02-28T16:23:02;0.52;;;0.10;;
43803;SDS011;29430;52.924;-2.388;2023-02-28T16:27:54;1.20;;;0.10;;
43803;SDS011;29430;52.924;-2.388;2023-02-28T16:32:51;0.50;;;0.10;;
43803;SDS011;29430;52.924;-2.388;2023-02-28T16:37:45;2.25;;;0.20;;
43803;SDS011;29430;52.924;-2.388;2023-02-28T16:42:37;1.30;;;0.20;;
43803;SDS011;29430;52.924;-2.388;2023-02-28T16:47:29;0.63;;;0.15;;
43803;SDS011;29430;52.924;-2.388;2023-02-28T16:52:23;0.73;;;0.10;;
43803;SDS011;29430;52.924;-2.388;2023-02-28T16:57:17;0.93;;;0.20;;
43803;SDS011;29430;52.924;-2.388;2023-02-28T17:02:13;1.00;;;0.10;;
43803;SDS011;29430;52.924;-2.388;2023-02-28T17:07:10;0.68;;;0.20;;
43803;SDS011;29430;52.924;-2.388;2023-02-28T17:12:03;2.50;;;0.20;;
43803;SDS011;29430;52.924;-2.388;2023-02-28T17:16:55;2.70;;;0.20;;
43803;SDS011;29430;52.924;-2.388;2023-02-28T17:21:50;1.00;;;0.30;;
43803;SDS011;29430;52.924;-2.388;2023-02-28T17:26:41;2.10;;;0.30;;
43803;SDS011;29430;52.924;-2.388;2023-02-28T17:31:34;3.15;;;0.30;;
43803;SDS011;29430;52.924;-2.388;2023-02-28T17:36:31;1.30;;;0.30;;
43803;SDS011;29430;52.924;-2.388;2023-02-28T17:41:24;2.47;;;0.60;;
43803;SDS011;29430;52.924;-2.388;2023-02-28T17:46:18;0.93;;;0.30;;
43803;SDS011;29430;52.924;-2.388;2023-02-28T17:51:13;1.60;;;0.20;;
43803;SDS011;29430;52.924;-2.388;2023-02-28T17:56:10;2.40;;;0.28;;
43803;SDS011;29430;52.924;-2.388;2023-02-28T18:01:23;0.95;;;0.20;;
43803;SDS011;29430;52.924;-2.388;2023-02-28T18:11:15;0.40;;;0.10;;
43803;SDS011;29430;52.924;-2.388;2023-02-28T18:16:10;1.45;;;0.10;;
43803;SDS011;29430;52.924;-2.388;2023-02-28T18:21:02;0.55;;;0.10;;
43803;SDS011;29430;52.924;-2.388;2023-02-28T18:25:56;0.75;;;0.10;;
43803;SDS011;29430;52.924;-2.388;2023-02-28T18:30:49;0.45;;;0.10;;
43803;SDS011;29430;52.924;-2.388;2023-02-28T18:35:41;0.40;;;0.10;;
43803;SDS011;29430;52.924;-2.388;2023-02-28T18:40:35;0.50;;;0.20;;
43803;SDS011;29430;52.924;-2.388;2023-02-28T18:45:27;0.82;;;0.22;;
43803;SDS011;29430;52.924;-2.388;2023-02-28T18:50:19;0.88;;;0.10;;
43803;SDS011;29430;52.924;-2.388;2023-02-28T18:55:11;1.60;;;0.30;;
43803;SDS011;29430;52.924;-2.388;2023-02-28T19:00:09;2.00;;;0.20;;
43803;SDS011;29430;52.924;-2.388;2023-02-28T19:05:01;2.63;;;0.52;;
43803;SDS011;29430;52.924;-2.388;2023-02-28T19:09:52;1.13;;;0.20;;
43803;SDS011;29430;52.924;-2.388;2023-02-28T19:14:44;3.35;;;0.20;;
43803;SDS011;29430;52.924;-2.388;2023-02-28T19:19:37;1.55;;;0.20;;
43803;SDS011;29430;52.924;-2.388;2023-02-28T19:24:28;1.00;;;0.20;;
43803;SDS011;29430;52.924;-2.388;2023-02-28T19:29:20;4.03;;;0.38;;
43803;SDS011;29430;52.924;-2.388;2023-02-28T19:34:12;0.90;;;0.20;;
43803;SDS011;29430;52.924;-2.388;2023-02-28T19:39:04;1.65;;;0.22;;
43803;SDS011;29430;52.924;-2.388;2023-02-28T19:43:56;1.20;;;0.30;;
43803;SDS011;29430;52.924;-2.388;2023-02-28T19:48:48;1.60;;;0.35;;
43803;SDS011;29430;52.924;-2.388;2023-02-28T19:53:44;0.77;;;0.30;;
43803;SDS011;29430;52.924;-2.388;2023-02-28T19:58:36;2.35;;;0.32;;
43803;SDS011;29430;52.924;-2.388;2023-02-28T20:03:28;1.00;;;0.20;;
43803;SDS011;29430;52.924;-2.388;2023-02-28T20:08:20;0.68;;;0.10;;
43803;SDS011;29430;52.924;-2.388;2023-02-28T20:13:12;0.55;;;0.10;;
43803;SDS011;29430;52.924;-2.388;2023-02-28T20:18:06;2.08;;;0.20;;
43803;SDS011;29430;52.924;-2.388;2023-02-28T20:22:58;0.55;;;0.17;;
43803;SDS011;29430;52.924;-2.388;2023-02-28T20:27:50;0.70;;;0.20;;
43803;SDS011;29430;52.924;-2.388;2023-02-28T20:32:42;1.58;;;0.30;;
43803;SDS011;29430;52.924;-2.388;2023-02-28T20:37:34;0.85;;;0.30;;
43803;SDS011;29430;52.924;-2.388;2023-02-28T20:42:25;1.42;;;0.30;;
43803;SDS011;29430;52.924;-2.388;2023-02-28T20:47:17;1.42;;;0.32;;
43803;SDS011;29430;52.924;-2.388;2023-02-28T20:52:09;0.90;;;0.30;;
43803;SDS011;29430;52.924;-2.388;2023-02-28T20:57:01;1.45;;;0.50;;
43803;SDS011;29430;52.924;-2.388;2023-02-28T21:01:53;1.10;;;0.40;;
43803;SDS011;29430;52.924;-2.388;2023-02-28T21:06:46;1.52;;;0.40;;
43803;SDS011;29430;52.924;-2.388;2023-02-28T21:11:40;2.05;;;0.52;;
43803;SDS011;29430;52.924;-2.388;2023-02-28T21:16:32;1.85;;;0.50;;
43803;SDS011;29430;52.924;-2.388;2023-02-28T21:21:27;2.05;;;0.60;;
43803;SDS011;29430;52.924;-2.388;2023-02-28T21:26:21;2.40;;;0.70;;
43803;SDS011;29430;52.924;-2.388;2023-02-28T21:31:14;2.92;;;1.15;;
43803;SDS011;29430;52.924;-2.388;2023-02-28T21:46:05;2.05;;;0.60;;
43803;SDS011;29430;52.924;-2.388;2023-02-28T21:50:59;1.90;;;0.50;;
43803;SDS011;29430;52.924;-2.388;2023-02-28T21:55:58;1.48;;;0.40;;
43803;SDS011;29430;52.924;-2.388;2023-02-28T22:01:05;1.10;;;0.40;;
43803;SDS011;29430;52.924;-2.388;2023-02-28T22:05:58;1.20;;;0.40;;
43803;SDS011;29430;52.924;-2.388;2023-02-28T22:10:50;1.83;;;0.60;;
43803;SDS011;29430;52.924;-2.388;2023-02-28T22:15:42;1.42;;;0.43;;
43803;SDS011;29430;52.924;-2.388;2023-02-28T22:20:34;1.73;;;0.50;;
43803;SDS011;29430;52.924;-2.388;2023-02-28T22:25:25;2.70;;;0.60;;
43803;SDS011;29430;52.924;-2.388;2023-02-28T22:30:19;1.80;;;0.60;;
43803;SDS011;29430;52.924;-2.388;2023-02-28T22:35:11;1.80;;;0.70;;
43803;SDS011;29430;52.924;-2.388;2023-02-28T22:40:03;1.73;;;0.60;;
43803;SDS011;29430;52.924;-2.388;2023-02-28T22:44:57;1.70;;;0.60;;
43803;SDS011;29430;52.924;-2.388;2023-02-28T22:49:49;1.80;;;0.70;;
43803;SDS011;29430;52.924;-2.388;2023-02-28T22:54:40;2.92;;;0.60;;
43803;SDS011;29430;52.924;-2.388;2023-02-28T22:59:33;3.45;;;0.60;;
43803;SDS011;29430;52.924;-2.388;2023-02-28T23:04:24;3.75;;;0.60;;
43803;SDS011;29430;52.924;-2.388;2023-02-28T23:09:17;2.35;;;0.50;;
43803;SDS011;29430;52.924;-2.388;2023-02-28T23:14:12;2.50;;;0.55;;
43803;SDS011;29430;52.924;-2.388;2023-02-28T23:19:07;1.42;;;0.40;;
43803;SDS011;29430;52.924;-2.388;2023-02-28T23:24:03;1.48;;;0.50;;
43803;SDS011;29430;52.924;-2.388;2023-02-28T23:28:56;1.33;;;0.40;;
43803;SDS011;29430;52.924;-2.388;2023-02-28T23:33:48;1.48;;;0.52;;
43803;SDS011;29430;52.924;-2.388;2023-02-28T23:38:40;3.63;;;0.90;;
43803;SDS011;29430;52.924;-2.388;2023-02-28T23:43:34;3.05;;;0.80;;
43803;SDS011;29430;52.924;-2.388;2023-02-28T23:48:26;2.75;;;0.70;;
43803;SDS011;29430;52.924;-2.388;2023-02-28T23:53:18;5.28;;;1.00;;
43803;SDS011;29430;52.924;-2.388;2023-02-28T23:58:10;4.03;;;1.00;;
